createdAt,value
2023-01-03T00:01:42.398Z,100981.50
2023-01-03T00:04:12.812Z,100991.13
2023-01-03T00:06:43.829Z,100988.72
2023-01-03T00:09:15.355Z,100981.03
2023-01-03T00:12:01.368Z,100987.34
2023-01-03T00:14:32.010Z,100982.19
2023-01-03T00:17:01.889Z,100990.72
2023-01-03T00:19:34.296Z,100984.56
2023-01-03T00:22:02.365Z,100969.47
2023-01-03T00:24:30.651Z,100972.84
2023-01-03T00:26:58.781Z,100964.28
2023-01-03T00:29:26.974Z,100961.03
2023-01-03T00:31:57.453Z,100959.47
2023-01-03T00:34:25.978Z,100952.56
2023-01-03T00:36:55.800Z,100953.19
2023-01-03T00:39:24.432Z,100951.69
2023-01-03T00:41:52.843Z,100953.13
2023-01-03T00:44:21.742Z,100965.97
2023-01-03T00:46:50.127Z,100958.59
2023-01-03T00:49:18.542Z,100962.56
2023-01-03T00:51:47.223Z,100969.66
2023-01-03T00:54:17.414Z,100960.63
2023-01-03T00:56:47.244Z,100958.31
2023-01-03T00:59:16.994Z,100965.72
2023-01-03T01:01:48.000Z,100966.84
2023-01-03T01:04:21.026Z,100970.81
2023-01-03T01:06:51.370Z,100981.69
2023-01-03T01:09:22.916Z,100968.84
2023-01-03T01:11:51.638Z,100972.63
2023-01-03T01:14:22.459Z,100963.56
2023-01-03T01:16:52.660Z,100971.47
2023-01-03T01:19:22.353Z,100978.50
2023-01-03T01:21:50.460Z,100962.31
2023-01-03T01:24:18.568Z,100971.50
2023-01-03T01:26:48.391Z,100984.03
2023-01-03T01:29:18.121Z,100975.84
2023-01-03T01:31:47.172Z,100980.66
2023-01-03T01:34:15.821Z,100965.13
2023-01-03T01:36:44.806Z,100976.00
2023-01-03T01:39:15.289Z,100973.16
2023-01-03T01:42:02.235Z,100981.75
2023-01-03T01:44:55.457Z,100976.28
2023-01-03T01:47:37.587Z,100977.53
2023-01-03T01:50:14.942Z,100984.19
2023-01-03T01:52:47.323Z,100980.41
2023-01-03T01:55:19.797Z,100976.88
2023-01-03T01:57:48.128Z,100983.59
2023-01-03T02:00:17.921Z,100982.75
2023-01-03T02:02:49.385Z,100986.69
2023-01-03T02:05:19.811Z,100974.22
2023-01-03T02:07:50.430Z,100973.34
2023-01-03T02:10:20.016Z,100965.06
2023-01-03T02:13:14.756Z,100961.41
2023-01-03T02:16:05.163Z,100951.56
2023-01-03T02:18:56.094Z,100964.69
2023-01-03T02:21:56.728Z,100977.19
2023-01-03T02:24:53.247Z,100976.84
2023-01-03T02:28:02.807Z,100988.19
2023-01-03T02:30:47.873Z,100997.34
2023-01-03T02:33:25.585Z,100988.03
2023-01-03T02:36:05.110Z,100983.53
2023-01-03T02:38:43.550Z,100994.16
2023-01-03T02:41:20.525Z,100989.31
2023-01-03T02:43:54.289Z,100983.44
2023-01-03T02:46:31.743Z,100984.38
2023-01-03T02:49:05.317Z,100992.38
2023-01-03T02:51:37.162Z,100979.00
2023-01-03T02:54:07.778Z,101000.56
2023-01-03T02:56:40.353Z,100996.47
2023-01-03T02:59:13.442Z,100984.56
2023-01-03T03:01:45.767Z,100991.84
2023-01-03T03:04:15.771Z,100982.00
2023-01-03T03:06:51.081Z,100992.78
2023-01-03T03:09:19.352Z,100984.44
2023-01-03T03:12:06.187Z,101000.28
2023-01-03T03:14:38.646Z,101001.13
2023-01-03T03:17:12.391Z,100999.50
2023-01-03T03:20:03.125Z,100998.16
2023-01-03T03:22:56.187Z,101003.00
2023-01-03T03:25:29.539Z,101001.63
2023-01-03T03:28:23.209Z,100999.91
2023-01-03T03:30:55.807Z,101002.78
2023-01-03T03:33:27.886Z,101013.56
2023-01-03T03:36:03.612Z,101010.75
2023-01-03T03:38:35.972Z,101010.16
2023-01-03T03:41:31.674Z,101018.50
2023-01-03T03:44:22.430Z,101023.88
2023-01-03T03:47:04.162Z,101024.66
2023-01-03T03:49:41.110Z,101023.44
2023-01-03T03:52:14.650Z,101030.88
2023-01-03T03:54:48.094Z,101033.03
2023-01-03T03:57:20.728Z,101031.25
2023-01-03T03:59:54.241Z,101023.16
2023-01-03T04:02:25.121Z,101024.78
2023-01-03T04:04:59.575Z,101022.38
2023-01-03T04:07:27.739Z,101021.38
2023-01-03T04:09:55.849Z,101022.81
2023-01-03T04:12:24.167Z,101014.16
2023-01-03T04:14:52.342Z,101016.75
2023-01-03T04:17:20.452Z,101022.09
2023-01-03T04:19:48.568Z,101022.16
2023-01-03T04:22:18.182Z,101016.94
2023-01-03T04:24:46.180Z,101015.25
2023-01-03T04:27:14.216Z,101024.25
2023-01-03T04:29:43.005Z,101020.00
2023-01-03T04:32:11.262Z,101028.63
2023-01-03T04:34:39.533Z,101023.81
2023-01-03T04:37:07.702Z,101035.75
2023-01-03T04:39:37.131Z,101031.44
2023-01-03T04:42:25.836Z,101028.66
2023-01-03T04:44:53.129Z,101027.50
2023-01-03T04:47:21.598Z,101027.59
2023-01-03T04:49:49.951Z,101021.66
2023-01-03T04:52:18.538Z,101025.13
2023-01-03T04:54:47.932Z,101036.59
2023-01-03T04:57:16.163Z,101022.94
2023-01-03T04:59:44.386Z,101032.63
2023-01-03T05:02:12.551Z,101035.75
2023-01-03T05:04:40.900Z,101032.22
2023-01-03T05:07:09.052Z,101031.13
2023-01-03T05:09:37.244Z,101041.41
2023-01-03T05:12:07.405Z,101037.84
2023-01-03T05:14:37.200Z,101033.09
2023-01-03T05:17:05.406Z,101053.22
2023-01-03T05:19:33.833Z,101048.91
2023-01-03T05:22:30.527Z,101039.06
2023-01-03T05:25:15.832Z,101048.25
2023-01-03T05:27:45.532Z,101053.88
2023-01-03T05:30:14.059Z,101050.09
2023-01-03T05:32:42.394Z,101054.72
2023-01-03T05:35:11.140Z,101063.34
2023-01-03T05:37:39.231Z,101067.00
2023-01-03T05:40:08.527Z,101059.69
2023-01-03T05:42:36.696Z,101065.75
2023-01-03T05:45:07.001Z,101062.41
2023-01-03T05:47:34.969Z,101054.25
2023-01-03T05:50:03.169Z,101064.19
2023-01-03T05:52:31.360Z,101062.44
2023-01-03T05:54:59.319Z,101077.25
2023-01-03T05:57:31.850Z,101086.25
2023-01-03T06:00:03.798Z,101087.94
2023-01-03T06:02:34.060Z,101095.50
2023-01-03T06:05:02.347Z,101089.72
2023-01-03T06:07:31.264Z,101102.63
2023-01-03T06:09:59.282Z,101106.63
2023-01-03T06:12:27.905Z,101094.41
2023-01-03T06:14:56.181Z,101100.78
2023-01-03T06:17:42.037Z,101107.19
2023-01-03T06:20:11.813Z,101114.50
2023-01-03T06:22:40.092Z,101115.34
2023-01-03T06:25:08.798Z,101103.16
2023-01-03T06:27:36.946Z,101106.72
2023-01-03T06:30:05.808Z,101124.41
2023-01-03T06:32:34.140Z,101116.56
2023-01-03T06:35:02.191Z,101122.72
2023-01-03T06:37:31.571Z,101131.28
2023-01-03T06:39:59.531Z,101131.16
2023-01-03T06:42:45.892Z,101120.56
2023-01-03T06:45:33.453Z,101129.66
2023-01-03T06:48:23.718Z,101130.22
2023-01-03T06:51:09.858Z,101131.91
2023-01-03T06:53:44.054Z,101142.59
2023-01-03T06:56:12.620Z,101137.00
2023-01-03T06:58:40.797Z,101146.94
2023-01-03T07:01:09.094Z,101141.59
2023-01-03T07:03:37.405Z,101149.22
2023-01-03T07:06:05.761Z,101141.94
2023-01-03T07:08:33.829Z,101136.44
2023-01-03T07:11:03.332Z,101149.69
2023-01-03T07:13:48.785Z,101149.81
2023-01-03T07:16:17.541Z,101130.50
2023-01-03T07:18:52.659Z,101159.44
2023-01-03T07:21:24.007Z,101149.81
2023-01-03T07:23:53.912Z,101147.28
2023-01-03T07:26:24.519Z,101158.75
2023-01-03T07:28:52.549Z,101165.78
2023-01-03T07:31:20.656Z,101164.22
2023-01-03T07:33:48.891Z,101159.25
2023-01-03T07:36:17.774Z,101149.66
2023-01-03T07:38:46.935Z,101155.31
2023-01-03T07:41:15.786Z,101141.22
2023-01-03T07:43:46.063Z,101151.19
2023-01-03T07:46:16.877Z,101155.56
2023-01-03T07:48:46.184Z,101150.50
2023-01-03T07:51:16.357Z,101168.25
2023-01-03T07:53:45.069Z,101160.31
2023-01-03T07:56:14.890Z,101164.25
2023-01-03T07:58:45.579Z,101162.59
2023-01-03T08:01:16.680Z,101172.94
2023-01-03T08:03:45.534Z,101168.19
2023-01-03T08:06:15.338Z,101180.91
2023-01-03T08:08:43.341Z,101187.44
2023-01-03T08:11:30.797Z,101179.91
2023-01-03T08:14:00.904Z,101173.31
2023-01-03T08:16:29.102Z,101175.41
2023-01-03T08:18:57.080Z,101185.38
2023-01-03T08:21:25.123Z,101176.97
2023-01-03T08:23:53.429Z,101187.28
2023-01-03T08:26:21.425Z,101174.63
2023-01-03T08:28:49.397Z,101176.06
2023-01-03T08:31:22.403Z,101180.13
2023-01-03T08:33:53.616Z,101190.63
2023-01-03T08:36:24.471Z,101190.44
2023-01-03T08:38:58.717Z,101185.63
2023-01-03T08:41:30.457Z,101195.91
2023-01-03T08:44:00.993Z,101205.59
2023-01-03T08:46:33.197Z,101204.28
2023-01-03T08:49:01.946Z,101210.97
2023-01-03T08:51:30.129Z,101209.88
2023-01-03T08:53:58.345Z,101218.72
2023-01-03T08:56:26.452Z,101218.25
2023-01-03T08:58:57.659Z,101218.56
2023-01-03T09:01:26.057Z,101216.59
2023-01-03T09:03:55.761Z,101224.22
2023-01-03T09:06:24.076Z,101219.16
2023-01-03T09:08:52.278Z,101225.94
2023-01-03T09:11:20.404Z,101228.38
2023-01-03T09:13:48.455Z,101226.84
2023-01-03T09:16:17.006Z,101221.75
2023-01-03T09:18:45.408Z,101224.84
2023-01-03T09:21:14.781Z,101227.41
2023-01-03T09:23:42.723Z,101219.06
2023-01-03T09:26:10.805Z,101221.13
2023-01-03T09:28:39.030Z,101220.56
2023-01-03T09:31:07.017Z,101217.28
2023-01-03T09:33:35.111Z,101215.31
2023-01-03T09:36:03.135Z,101216.34
2023-01-03T09:38:32.678Z,101217.50
2023-01-03T09:41:03.631Z,101223.88
2023-01-03T09:43:37.506Z,101215.56
2023-01-03T09:46:06.623Z,101210.50
2023-01-03T09:48:38.246Z,101225.44
2023-01-03T09:51:30.438Z,101218.97
2023-01-03T09:54:17.488Z,101226.09
2023-01-03T09:57:02.985Z,101219.94
2023-01-03T09:59:55.104Z,101217.00
2023-01-03T10:02:59.753Z,101222.06
2023-01-03T10:05:43.829Z,101222.41
2023-01-03T10:08:23.070Z,101219.81
2023-01-03T10:11:02.084Z,101223.19
2023-01-03T10:13:43.807Z,101222.78
2023-01-03T10:16:21.417Z,101210.72
2023-01-03T10:19:05.368Z,101215.06
2023-01-03T10:21:45.987Z,101220.50
2023-01-03T10:24:19.400Z,101221.28
2023-01-03T10:26:50.215Z,101218.59
2023-01-03T10:29:19.676Z,101218.25
2023-01-03T10:32:04.325Z,101218.13
2023-01-03T10:34:32.426Z,101213.63
2023-01-03T10:37:00.555Z,101216.13
2023-01-03T10:39:31.484Z,101210.19
2023-01-03T10:42:01.429Z,101214.31
2023-01-03T10:44:31.772Z,101219.09
2023-01-03T10:47:01.275Z,101219.78
2023-01-03T10:49:30.890Z,101210.88
2023-01-03T10:52:03.487Z,101217.25
2023-01-03T10:54:46.462Z,101224.19
2023-01-03T10:57:39.324Z,101210.22
2023-01-03T11:00:26.586Z,101207.38
2023-01-03T11:02:56.007Z,101201.00
2023-01-03T11:05:26.522Z,101207.34
2023-01-03T11:07:57.249Z,101195.28
2023-01-03T11:10:27.441Z,101198.56
2023-01-03T11:12:56.876Z,101193.97
2023-01-03T11:15:39.144Z,101195.53
2023-01-03T11:18:20.768Z,101179.38
2023-01-03T11:20:55.583Z,101192.38
2023-01-03T11:23:38.915Z,101190.78
2023-01-03T11:26:19.558Z,101182.72
2023-01-03T11:29:07.253Z,101170.03
2023-01-03T11:31:50.061Z,101173.56
2023-01-03T11:35:12.074Z,101156.28
2023-01-03T11:37:38.001Z,101162.81
2023-01-03T11:40:17.725Z,101152.44
2023-01-03T11:43:02.187Z,101146.31
2023-01-03T11:45:49.368Z,101148.38
2023-01-03T11:48:47.088Z,101146.34
2023-01-03T11:51:18.770Z,101150.56
2023-01-03T11:53:57.291Z,101143.69
2023-01-03T11:56:30.867Z,101146.00
2023-01-03T11:59:28.190Z,101142.50
2023-01-03T12:02:24.890Z,101141.06
2023-01-03T12:05:06.115Z,101135.72
2023-01-03T12:07:48.690Z,101141.72
2023-01-03T12:10:23.922Z,101143.88
2023-01-03T12:13:16.016Z,101146.00
2023-01-03T12:15:50.144Z,101152.59
2023-01-03T12:18:26.459Z,101139.44
2023-01-03T12:21:00.204Z,101144.41
2023-01-03T12:23:39.059Z,101150.78
2023-01-03T12:26:11.157Z,101145.84
2023-01-03T12:28:42.209Z,101147.00
2023-01-03T12:31:26.263Z,101151.03
2023-01-03T12:34:09.472Z,101141.38
2023-01-03T12:36:45.365Z,101132.41
2023-01-03T12:39:46.388Z,101129.28
2023-01-03T12:42:23.098Z,101119.34
2023-01-03T12:44:59.405Z,101134.16
2023-01-03T12:47:33.113Z,101124.00
2023-01-03T12:50:08.417Z,101129.97
2023-01-03T12:52:38.976Z,101119.53
2023-01-03T12:55:19.744Z,101115.06
2023-01-03T12:58:15.791Z,101108.75
2023-01-03T13:00:54.750Z,101112.44
2023-01-03T13:03:27.634Z,101110.44
2023-01-03T13:06:03.741Z,101109.38
2023-01-03T13:08:37.396Z,101102.75
2023-01-03T13:11:14.826Z,101112.97
2023-01-03T13:13:50.936Z,101120.06
2023-01-03T13:16:43.099Z,101113.56
2023-01-03T13:19:52.278Z,101109.84
2023-01-03T13:22:33.803Z,101105.38
2023-01-03T13:25:31.122Z,101115.69
2023-01-03T13:28:00.832Z,101099.91
2023-01-03T13:30:30.520Z,101103.41
2023-01-03T13:33:21.368Z,101111.31
2023-01-03T13:36:11.010Z,101104.47
2023-01-03T13:38:40.625Z,101105.19
2023-01-03T13:41:31.799Z,101107.25
2023-01-03T13:44:09.626Z,101106.59
2023-01-03T13:46:42.206Z,101101.13
2023-01-03T13:49:20.012Z,101098.59
2023-01-03T13:51:51.789Z,101102.75
2023-01-03T13:55:02.750Z,101103.34
2023-01-03T13:57:38.328Z,101109.41
2023-01-03T14:00:20.186Z,101104.41
2023-01-03T14:03:29.252Z,101105.94
2023-01-03T14:06:51.104Z,101102.38
2023-01-03T14:09:45.871Z,101105.47
2023-01-03T14:12:50.490Z,101103.81
2023-01-03T14:15:26.240Z,101111.22
2023-01-03T14:17:57.968Z,101103.75
2023-01-03T14:20:29.869Z,101108.75
2023-01-03T14:23:17.245Z,101106.66
2023-01-03T14:25:52.805Z,101125.81
2023-01-03T14:28:24.245Z,101117.44
2023-01-03T14:31:05.489Z,101124.84
2023-01-03T14:33:39.298Z,101119.75
2023-01-03T14:36:09.574Z,101127.44
2023-01-03T14:38:37.628Z,101127.50
2023-01-03T14:41:06.106Z,101121.94
2023-01-03T14:43:35.301Z,101136.72
2023-01-03T14:46:07.371Z,101125.19
2023-01-03T14:48:35.978Z,101134.56
2023-01-03T14:51:05.736Z,101133.13
2023-01-03T14:53:35.422Z,101129.69
2023-01-03T14:56:04.465Z,101135.13
2023-01-03T14:58:34.717Z,101126.34
2023-01-03T15:01:06.624Z,101126.88
2023-01-03T15:03:38.090Z,101134.50
2023-01-03T15:06:20.174Z,101135.34
2023-01-03T15:08:49.997Z,101134.91
2023-01-03T15:11:25.150Z,101137.09
2023-01-03T15:13:56.843Z,101145.56
2023-01-03T15:16:31.398Z,101145.00
2023-01-03T15:19:07.886Z,101143.44
2023-01-03T15:21:36.084Z,101142.53
2023-01-03T15:24:04.219Z,101137.94
2023-01-03T15:26:40.615Z,101144.16
2023-01-03T15:29:14.237Z,101152.13
2023-01-03T15:31:53.001Z,101150.47
2023-01-03T15:34:24.734Z,101152.59
2023-01-03T15:36:56.767Z,101146.25
2023-01-03T15:39:27.402Z,101148.53
2023-01-03T15:45:10.284Z,101152.66
2023-01-03T15:47:41.187Z,101148.69
2023-01-03T15:50:18.905Z,101151.66
2023-01-03T15:52:47.007Z,101138.84
2023-01-03T15:55:15.595Z,101151.56
2023-01-03T15:57:49.608Z,101148.91
2023-01-03T16:00:21.290Z,101105.13
2023-01-03T16:02:51.513Z,101164.16
2023-01-03T16:05:23.092Z,101171.50
2023-01-03T16:07:51.691Z,101177.03
2023-01-03T16:10:21.713Z,101166.00
2023-01-03T16:12:49.922Z,101166.72
2023-01-03T16:15:21.587Z,101166.00
2023-01-03T16:17:52.131Z,101158.78
2023-01-03T16:20:20.985Z,101153.00
2023-01-03T16:23:01.163Z,101169.09
2023-01-03T16:25:30.350Z,101173.63
2023-01-03T16:27:58.450Z,101180.53
2023-01-03T16:30:26.544Z,101169.78
2023-01-03T16:32:55.953Z,101179.78
2023-01-03T16:35:24.034Z,101192.34
2023-01-03T16:37:51.987Z,101195.41
2023-01-03T16:40:22.124Z,101189.41
2023-01-03T16:42:51.285Z,101192.91
2023-01-03T16:45:19.613Z,101187.16
2023-01-03T16:47:48.707Z,101198.78
2023-01-03T16:50:20.944Z,101199.88
2023-01-03T16:52:52.426Z,101196.03
2023-01-03T16:55:26.111Z,101203.19
2023-01-03T16:57:55.291Z,101202.84
2023-01-03T17:00:25.547Z,101193.25
2023-01-03T17:02:55.990Z,101209.13
2023-01-03T17:05:26.735Z,101207.09
2023-01-03T17:08:04.087Z,101207.59
2023-01-03T17:10:35.209Z,101216.97
2023-01-03T17:13:10.479Z,101215.75
2023-01-03T17:15:41.845Z,101213.56
2023-01-03T17:18:18.603Z,101225.00
2023-01-03T17:20:53.863Z,101211.66
2023-01-03T17:23:22.378Z,101233.97
2023-01-03T17:25:50.836Z,101229.50
2023-01-03T17:28:20.055Z,101238.22
2023-01-03T17:30:51.345Z,101212.97
2023-01-03T17:33:19.918Z,101242.00
2023-01-03T17:35:51.060Z,101248.69
2023-01-03T17:38:27.721Z,101241.53
2023-01-03T17:40:59.856Z,101248.56
2023-01-03T17:43:29.079Z,101247.22
2023-01-03T17:46:23.060Z,101252.34
2023-01-03T17:49:09.857Z,101246.13
2023-01-03T17:51:40.289Z,101258.16
2023-01-03T17:54:12.042Z,101255.44
2023-01-03T17:56:40.746Z,101269.13
2023-01-03T17:59:08.950Z,101267.13
2023-01-03T18:01:37.361Z,101268.44
2023-01-03T18:04:05.719Z,101270.06
2023-01-03T18:06:34.200Z,101279.16
2023-01-03T18:09:06.174Z,101278.75
2023-01-03T18:11:34.645Z,101273.94
2023-01-03T18:14:02.733Z,101275.19
2023-01-03T18:16:30.780Z,101278.88
2023-01-03T18:18:58.776Z,101277.91
2023-01-03T18:21:28.739Z,101278.34
2023-01-03T18:23:59.671Z,101269.69
2023-01-03T18:26:34.276Z,101288.41
2023-01-03T18:29:02.362Z,101288.34
2023-01-03T18:31:30.926Z,101288.63
2023-01-03T18:34:04.160Z,101281.75
2023-01-03T18:36:39.839Z,101288.75
2023-01-03T18:39:13.022Z,101282.31
2023-01-03T18:41:42.985Z,101287.91
2023-01-03T18:44:20.546Z,101289.00
2023-01-03T18:46:49.152Z,101291.56
2023-01-03T18:49:17.675Z,101296.66
2023-01-03T18:51:48.179Z,101300.81
2023-01-03T18:54:19.488Z,101300.50
2023-01-03T18:56:49.311Z,101284.66
2023-01-03T18:59:22.588Z,101293.63
2023-01-03T19:01:50.720Z,101289.81
2023-01-03T19:04:18.801Z,101298.78
2023-01-03T19:06:51.420Z,101302.41
2023-01-03T19:09:23.312Z,101304.97
2023-01-03T19:11:54.092Z,101308.69
2023-01-03T19:14:22.485Z,101310.09
2023-01-03T19:16:50.643Z,101305.81
2023-01-03T19:19:18.780Z,101311.31
2023-01-03T19:21:48.142Z,101311.16
2023-01-03T19:24:23.968Z,101316.53
2023-01-03T19:26:56.297Z,101305.50
2023-01-03T19:29:28.452Z,101285.72
2023-01-03T19:31:58.066Z,101328.00
2023-01-03T19:34:28.124Z,101321.41
2023-01-03T19:36:56.119Z,101319.91
2023-01-03T19:39:26.237Z,101329.19
2023-01-03T19:42:21.895Z,101320.00
2023-01-03T19:44:50.469Z,101313.41
2023-01-03T19:47:20.097Z,101319.34
2023-01-03T19:49:49.060Z,101322.78
2023-01-03T19:52:17.727Z,101313.50
2023-01-03T19:54:46.171Z,101298.59
2023-01-03T19:57:22.038Z,101315.00
2023-01-03T19:59:53.874Z,101322.78
2023-01-03T20:02:36.289Z,101314.47
2023-01-03T20:05:14.457Z,101315.31
2023-01-03T20:07:43.171Z,101318.88
2023-01-03T20:10:15.552Z,101319.81
2023-01-03T20:12:45.564Z,101321.91
2023-01-03T20:15:21.375Z,101321.72
2023-01-03T20:17:49.533Z,101301.28
2023-01-03T20:20:18.190Z,101323.34
2023-01-03T20:23:04.437Z,101327.91
2023-01-03T20:25:34.739Z,101277.72
2023-01-03T20:28:04.489Z,101314.81
2023-01-03T20:30:34.825Z,101328.44
2023-01-03T20:33:02.984Z,101291.75
2023-01-03T20:38:25.124Z,101333.00
2023-01-03T20:40:53.674Z,101332.66
2023-01-03T20:43:23.340Z,101305.50
2023-01-03T20:45:55.029Z,101332.66
2023-01-03T20:48:26.186Z,101311.47
2023-01-03T20:50:54.783Z,101327.53
2023-01-03T20:53:25.455Z,101318.69
2023-01-03T20:55:54.428Z,101313.41
2023-01-03T20:58:26.224Z,101322.13
2023-01-03T21:01:02.027Z,101331.66
2023-01-03T21:03:33.143Z,101339.81
2023-01-03T21:06:01.524Z,101332.78
2023-01-03T21:08:47.244Z,101341.16
2023-01-03T21:11:15.499Z,101331.06
2023-01-03T21:13:44.873Z,101335.81
2023-01-03T21:16:30.044Z,101351.50
2023-01-03T21:19:02.522Z,101362.38
2023-01-03T21:21:32.797Z,101364.81
2023-01-03T21:24:01.523Z,101363.34
2023-01-03T21:26:29.777Z,101363.94
2023-01-03T21:28:59.730Z,101363.19
2023-01-03T21:31:28.262Z,101341.81
2023-01-03T21:33:56.428Z,101334.50
2023-01-03T21:36:27.814Z,101361.69
2023-01-03T21:38:56.437Z,101359.38
2023-01-03T21:41:29.785Z,101370.53
2023-01-03T21:44:01.051Z,101351.00
2023-01-03T21:46:29.252Z,101362.28
2023-01-03T21:48:58.389Z,101370.63
2023-01-03T21:51:37.748Z,101370.63
2023-01-03T21:54:07.666Z,101377.22
2023-01-03T21:56:45.418Z,101358.66
2023-01-03T21:59:15.961Z,101378.91
2023-01-03T22:02:02.670Z,101376.41
2023-01-03T22:04:31.105Z,101367.13
2023-01-03T22:07:01.158Z,101386.75
2023-01-03T22:09:47.819Z,101384.19
2023-01-03T22:12:16.572Z,101381.72
2023-01-03T22:14:46.493Z,101381.50
2023-01-03T22:17:14.720Z,101382.91
2023-01-03T22:19:42.863Z,101361.97
2023-01-03T22:22:11.164Z,101376.97
2023-01-03T22:24:39.209Z,101395.84
2023-01-03T22:27:07.533Z,101398.41
2023-01-03T22:29:35.645Z,101398.44
2023-01-03T22:32:05.503Z,101385.69
2023-01-03T22:34:33.724Z,101383.88
2023-01-03T22:37:01.748Z,101336.63
2023-01-03T22:39:32.269Z,101393.19
2023-01-03T22:42:00.335Z,101405.13
2023-01-03T22:44:28.380Z,101399.09
2023-01-03T22:46:56.427Z,101404.94
2023-01-03T22:49:26.006Z,101413.22
2023-01-03T22:51:54.227Z,101405.72
2023-01-03T22:54:22.466Z,101406.31
2023-01-03T22:56:50.758Z,101415.03
2023-01-03T22:59:18.780Z,101401.53
2023-01-03T23:01:46.895Z,101422.34
2023-01-03T23:04:15.012Z,101415.56
2023-01-03T23:06:44.449Z,101381.84
2023-01-03T23:09:13.996Z,101409.06
2023-01-03T23:12:00.018Z,101395.25
2023-01-03T23:14:28.973Z,101400.28
2023-01-03T23:16:57.016Z,101417.28
2023-01-03T23:19:27.183Z,101415.16
2023-01-03T23:21:58.366Z,101424.69
2023-01-03T23:24:26.712Z,101411.88
2023-01-03T23:26:55.134Z,101398.47
2023-01-03T23:29:23.457Z,101415.41
2023-01-03T23:31:52.825Z,101410.75
2023-01-03T23:34:20.983Z,101413.53
2023-01-03T23:36:49.431Z,101410.09
2023-01-03T23:39:20.013Z,101412.66
2023-01-03T23:41:48.395Z,101403.94
2023-01-03T23:44:16.483Z,101410.19
2023-01-03T23:46:44.581Z,101385.56
2023-01-03T23:49:13.520Z,101404.69
2023-01-03T23:51:41.806Z,101406.59
2023-01-03T23:54:10.781Z,101370.59
2023-01-03T23:56:40.241Z,101402.97
2023-01-03T23:59:08.235Z,101393.88
